createdAt,value
2022-10-20T00:01:51.844Z,90.03
2022-10-20T00:04:18.537Z,90.25
2022-10-20T00:06:45.162Z,89.91
2022-10-20T00:09:11.987Z,90.21
2022-10-20T00:11:39.326Z,90.64
2022-10-20T00:14:06.247Z,91.23
2022-10-20T00:16:36.946Z,91.85
2022-10-20T00:19:03.991Z,91.30
2022-10-20T00:21:31.833Z,91.58
2022-10-20T00:24:01.471Z,92.04
2022-10-20T00:26:30.110Z,92.32
2022-10-20T00:28:57.701Z,92.50
2022-10-20T00:31:25.992Z,92.11
2022-10-20T00:33:53.485Z,92.43
2022-10-20T00:36:21.892Z,92.66
2022-10-20T00:38:49.413Z,92.65
2022-10-20T00:41:18.208Z,92.53
2022-10-20T00:43:54.221Z,93.36
2022-10-20T00:46:23.892Z,92.92
2022-10-20T00:48:55.301Z,93.80
2022-10-20T00:51:26.495Z,93.49
2022-10-20T00:53:58.360Z,93.55
2022-10-20T00:56:25.172Z,93.87
2022-10-20T00:58:51.835Z,93.88
2022-10-20T01:01:19.079Z,94.05
2022-10-20T01:03:49.141Z,92.97
2022-10-20T01:06:18.274Z,93.27
2022-10-20T01:08:45.076Z,93.50
2022-10-20T01:11:27.640Z,93.73
2022-10-20T01:14:06.804Z,93.68
2022-10-20T01:16:48.702Z,92.99
2022-10-20T01:19:25.496Z,93.05
2022-10-20T01:22:13.446Z,92.15
2022-10-20T01:24:50.802Z,90.71
2022-10-20T01:27:42.155Z,92.63
2022-10-20T01:30:13.428Z,93.51
2022-10-20T01:33:07.320Z,93.75
2022-10-20T01:35:49.175Z,93.52
2022-10-20T01:38:41.270Z,94.60
2022-10-20T01:41:14.203Z,94.62
2022-10-20T01:43:46.280Z,94.73
2022-10-20T01:46:15.777Z,94.75
2022-10-20T01:48:43.367Z,94.86
2022-10-20T01:51:10.690Z,95.48
2022-10-20T01:53:37.477Z,95.46
2022-10-20T01:56:05.094Z,95.42
2022-10-20T01:58:51.361Z,95.30
2022-10-20T02:01:42.676Z,95.06
2022-10-20T02:04:10.712Z,94.42
2022-10-20T02:06:52.526Z,94.33
2022-10-20T02:09:31.847Z,94.36
2022-10-20T02:12:03.250Z,94.54
2022-10-20T02:14:33.184Z,94.36
2022-10-20T02:17:06.659Z,94.47
2022-10-20T02:19:39.626Z,94.08
2022-10-20T02:22:08.862Z,93.07
2022-10-20T02:24:38.377Z,94.16
2022-10-20T02:27:14.122Z,93.83
2022-10-20T02:29:46.845Z,93.96
2022-10-20T02:32:16.210Z,94.44
2022-10-20T02:34:43.479Z,94.77
2022-10-20T02:37:11.044Z,94.11
2022-10-20T02:39:37.742Z,93.69
2022-10-20T02:42:04.399Z,94.66
2022-10-20T02:44:31.014Z,95.05
2022-10-20T02:46:57.689Z,94.86
2022-10-20T02:49:25.215Z,94.28
2022-10-20T02:51:51.849Z,94.08
2022-10-20T02:54:18.519Z,92.76
2022-10-20T02:56:45.206Z,93.40
2022-10-20T02:59:14.922Z,93.17
2022-10-20T03:01:41.788Z,91.63
2022-10-20T03:04:08.846Z,91.30
2022-10-20T03:06:35.564Z,91.73
2022-10-20T03:09:02.671Z,92.45
2022-10-20T03:11:29.653Z,91.34
2022-10-20T03:13:56.299Z,90.65
2022-10-20T03:16:22.975Z,91.15
2022-10-20T03:18:49.689Z,91.57
2022-10-20T03:21:16.297Z,91.33
2022-10-20T03:23:42.897Z,90.99
2022-10-20T03:26:11.204Z,90.98
2022-10-20T03:28:38.950Z,90.95
2022-10-20T03:31:06.072Z,90.94
2022-10-20T03:33:32.918Z,90.94
2022-10-20T03:35:59.521Z,90.85
2022-10-20T03:38:26.247Z,91.50
2022-10-20T03:40:52.955Z,90.33
2022-10-20T03:43:19.610Z,90.36
2022-10-20T03:45:46.228Z,90.38
2022-10-20T03:48:12.861Z,90.64
2022-10-20T03:50:40.196Z,90.08
2022-10-20T03:53:07.436Z,89.93
2022-10-20T03:55:34.050Z,90.25
2022-10-20T03:58:00.679Z,90.26
2022-10-20T04:00:27.352Z,89.72
2022-10-20T04:02:54.035Z,89.93
2022-10-20T04:05:20.926Z,89.99
2022-10-20T04:07:47.699Z,89.60
2022-10-20T04:10:16.530Z,89.61
2022-10-20T04:12:43.650Z,89.62
2022-10-20T04:15:10.890Z,89.34
2022-10-20T04:20:07.292Z,89.20
2022-10-20T04:22:34.310Z,88.98
2022-10-20T04:25:02.048Z,89.58
2022-10-20T04:27:29.338Z,89.81
2022-10-20T04:29:56.012Z,89.29
2022-10-20T04:32:22.637Z,89.05
2022-10-20T04:34:49.274Z,88.65
2022-10-20T04:37:16.042Z,89.39
2022-10-20T04:39:42.779Z,89.24
2022-10-20T04:42:09.422Z,89.25
2022-10-20T04:44:36.048Z,89.53
2022-10-20T04:47:02.725Z,89.20
2022-10-20T04:49:29.391Z,89.92
2022-10-20T04:52:00.646Z,89.37
2022-10-20T04:54:27.841Z,88.72
2022-10-20T04:56:54.532Z,89.22
2022-10-20T04:59:21.462Z,89.19
2022-10-20T05:01:48.230Z,88.87
2022-10-20T05:04:21.220Z,88.66
2022-10-20T05:06:49.088Z,88.61
2022-10-20T05:09:16.529Z,88.60
2022-10-20T05:11:43.305Z,88.30
2022-10-20T05:14:10.029Z,88.65
2022-10-20T05:16:36.929Z,88.90
2022-10-20T05:19:03.560Z,89.33
2022-10-20T05:21:31.513Z,88.70
2022-10-20T05:24:00.323Z,87.92
2022-10-20T05:26:29.476Z,89.45
2022-10-20T05:28:57.142Z,89.81
2022-10-20T05:31:24.007Z,89.30
2022-10-20T05:33:53.694Z,88.26
2022-10-20T05:36:22.924Z,89.18
2022-10-20T05:38:52.154Z,88.99
2022-10-20T05:41:21.592Z,89.02
2022-10-20T05:43:53.940Z,89.19
2022-10-20T05:46:21.091Z,88.11
2022-10-20T05:48:47.862Z,87.60
2022-10-20T05:51:17.105Z,88.55
2022-10-20T05:53:44.704Z,89.04
2022-10-20T05:56:13.893Z,88.03
2022-10-20T05:58:43.298Z,88.58
2022-10-20T06:01:40.273Z,87.95
2022-10-20T06:04:08.715Z,87.41
2022-10-20T06:06:36.197Z,87.33
2022-10-20T06:09:06.391Z,87.65
2022-10-20T06:11:38.443Z,86.66
2022-10-20T06:14:06.311Z,86.73
2022-10-20T06:16:33.420Z,87.13
2022-10-20T06:19:00.163Z,87.39
2022-10-20T06:21:30.459Z,86.14
2022-10-20T06:24:00.781Z,86.20
2022-10-20T06:26:30.019Z,86.70
2022-10-20T06:29:03.607Z,86.85
2022-10-20T06:31:33.699Z,85.40
2022-10-20T06:34:01.394Z,85.67
2022-10-20T06:36:28.448Z,85.47
2022-10-20T06:38:57.144Z,85.06
2022-10-20T06:41:25.429Z,84.57
2022-10-20T06:44:00.936Z,85.35
2022-10-20T06:46:31.339Z,84.89
2022-10-20T06:49:01.395Z,84.09
2022-10-20T06:51:28.131Z,84.37
2022-10-20T06:53:54.956Z,83.89
2022-10-20T06:56:24.837Z,84.40
2022-10-20T06:58:53.792Z,86.01
2022-10-20T07:01:23.754Z,84.83
2022-10-20T07:03:53.268Z,85.01
2022-10-20T07:06:23.957Z,83.69
2022-10-20T07:08:53.808Z,83.52
2022-10-20T07:11:23.649Z,80.59
2022-10-20T07:13:50.423Z,82.60
2022-10-20T07:16:19.885Z,81.56
2022-10-20T07:18:48.560Z,82.30
2022-10-20T07:21:17.602Z,82.30
2022-10-20T07:23:45.276Z,82.04
2022-10-20T07:26:13.725Z,80.93
2022-10-20T07:28:42.785Z,81.22
2022-10-20T07:31:14.053Z,80.67
2022-10-20T07:33:41.301Z,80.26
2022-10-20T07:36:19.033Z,79.54
2022-10-20T07:38:47.072Z,80.13
2022-10-20T07:41:15.354Z,80.27
2022-10-20T07:43:42.635Z,80.29
2022-10-20T07:46:11.126Z,80.37
2022-10-20T07:48:38.528Z,79.64
2022-10-20T07:51:21.513Z,80.19
2022-10-20T07:53:49.323Z,80.21
2022-10-20T07:56:16.534Z,80.49
2022-10-20T07:58:44.178Z,79.97
2022-10-20T08:01:11.023Z,78.98
2022-10-20T08:03:39.041Z,79.92
2022-10-20T08:06:06.429Z,79.32
2022-10-20T08:08:34.027Z,79.55
2022-10-20T08:11:01.377Z,80.08
2022-10-20T08:13:28.558Z,78.74
2022-10-20T08:15:59.979Z,79.54
2022-10-20T08:18:43.364Z,77.82
2022-10-20T08:21:14.740Z,77.22
2022-10-20T08:23:43.362Z,76.56
2022-10-20T08:26:11.541Z,76.59
2022-10-20T08:28:38.635Z,77.21
2022-10-20T08:31:07.216Z,77.34
2022-10-20T08:33:34.965Z,77.21
2022-10-20T08:36:04.207Z,76.88
2022-10-20T08:38:31.115Z,77.71
2022-10-20T08:40:59.500Z,78.09
2022-10-20T08:43:28.233Z,78.16
2022-10-20T08:45:55.016Z,77.39
2022-10-20T08:48:26.268Z,76.63
2022-10-20T08:50:54.044Z,77.13
2022-10-20T08:53:23.988Z,76.74
2022-10-20T08:55:52.083Z,76.70
2022-10-20T08:58:22.646Z,75.08
2022-10-20T09:00:56.957Z,75.92
2022-10-20T09:03:30.871Z,75.78
2022-10-20T09:06:15.269Z,75.13
2022-10-20T09:08:43.754Z,75.87
2022-10-20T09:11:17.295Z,76.16
2022-10-20T09:13:44.472Z,77.35
2022-10-20T09:16:22.065Z,76.65
2022-10-20T09:19:01.427Z,76.36
2022-10-20T09:21:31.794Z,75.96
2022-10-20T09:24:03.718Z,76.06
2022-10-20T09:26:54.173Z,76.77
2022-10-20T09:29:21.025Z,75.56
2022-10-20T09:31:49.809Z,73.87
2022-10-20T09:34:25.303Z,73.73
2022-10-20T09:36:57.417Z,73.54
2022-10-20T09:39:27.844Z,72.07
2022-10-20T09:42:13.618Z,70.99
2022-10-20T09:45:03.801Z,69.97
2022-10-20T09:47:30.974Z,67.56
2022-10-20T09:50:01.445Z,66.64
2022-10-20T09:52:34.814Z,65.99
2022-10-20T09:55:07.655Z,65.69
2022-10-20T09:57:34.821Z,65.58
2022-10-20T10:00:18.855Z,63.84
2022-10-20T10:02:52.219Z,62.89
2022-10-20T10:05:21.019Z,62.70
2022-10-20T10:07:59.082Z,62.70
2022-10-20T10:10:30.588Z,61.89
2022-10-20T10:13:01.023Z,63.35
2022-10-20T10:15:33.549Z,64.61
2022-10-20T10:18:00.803Z,66.23
2022-10-20T10:20:34.483Z,63.33
2022-10-20T10:23:19.129Z,64.38
2022-10-20T10:25:46.266Z,63.56
2022-10-20T10:28:22.661Z,65.05
2022-10-20T10:30:50.191Z,62.90
2022-10-20T10:33:26.058Z,64.08
2022-10-20T10:35:52.988Z,63.67
2022-10-20T10:38:20.278Z,65.37
2022-10-20T10:41:20.008Z,65.28
2022-10-20T10:43:52.601Z,65.28
2022-10-20T10:46:26.236Z,65.38
2022-10-20T10:49:23.486Z,63.51
2022-10-20T10:51:59.556Z,64.51
2022-10-20T10:54:26.130Z,64.67
2022-10-20T10:57:12.552Z,66.05
2022-10-20T10:59:43.097Z,66.02
2022-10-20T11:02:40.266Z,66.87
2022-10-20T11:05:22.232Z,63.95
2022-10-20T11:07:51.156Z,63.19
2022-10-20T11:10:26.143Z,62.87
2022-10-20T11:13:26.133Z,63.76
2022-10-20T11:16:28.889Z,64.24
2022-10-20T11:19:18.216Z,64.55
2022-10-20T11:22:15.924Z,64.14
2022-10-20T11:24:57.660Z,61.78
2022-10-20T11:27:29.556Z,62.09
2022-10-20T11:30:05.709Z,61.71
2022-10-20T11:32:44.048Z,61.65
2022-10-20T11:35:41.164Z,61.72
2022-10-20T11:38:22.983Z,64.28
2022-10-20T11:41:19.106Z,61.71
2022-10-20T11:43:45.747Z,62.22
2022-10-20T11:46:15.871Z,62.06
2022-10-20T11:48:49.196Z,61.70
2022-10-20T11:51:37.073Z,62.34
2022-10-20T11:54:34.159Z,63.26
2022-10-20T11:57:29.418Z,61.11
2022-10-20T12:00:09.815Z,64.49
2022-10-20T12:03:06.947Z,63.00
2022-10-20T12:05:48.915Z,62.68
2022-10-20T12:08:31.086Z,63.71
2022-10-20T12:11:12.987Z,63.57
2022-10-20T12:14:03.430Z,60.96
2022-10-20T12:17:05.011Z,61.66
2022-10-20T12:19:35.170Z,63.72
2022-10-20T12:22:03.505Z,64.36
2022-10-20T12:24:32.144Z,65.57
2022-10-20T12:27:20.705Z,66.96
2022-10-20T12:29:51.181Z,66.80
2022-10-20T12:32:36.456Z,65.77
2022-10-20T12:35:23.100Z,63.27
2022-10-20T12:37:57.286Z,62.96
2022-10-20T12:40:30.263Z,63.23
2022-10-20T12:42:57.479Z,63.94
2022-10-20T12:45:37.880Z,63.48
2022-10-20T12:48:07.982Z,64.65
2022-10-20T12:50:45.367Z,65.85
2022-10-20T12:53:28.781Z,65.45
2022-10-20T12:55:58.561Z,65.36
2022-10-20T12:58:55.632Z,63.00
2022-10-20T13:01:22.393Z,61.93
2022-10-20T13:03:50.930Z,64.53
2022-10-20T13:06:37.422Z,62.60
2022-10-20T13:09:04.257Z,61.09
2022-10-20T13:11:52.770Z,62.16
2022-10-20T13:14:27.610Z,62.13
2022-10-20T13:17:09.389Z,63.69
2022-10-20T13:19:47.108Z,63.72
2022-10-20T13:22:35.791Z,65.04
2022-10-20T13:25:06.175Z,64.54
2022-10-20T13:27:32.875Z,64.49
2022-10-20T13:29:59.632Z,62.51
2022-10-20T13:33:01.713Z,62.96
2022-10-20T13:35:38.334Z,63.42
2022-10-20T13:38:18.843Z,63.12
2022-10-20T13:43:37.902Z,63.52
2022-10-20T13:46:22.942Z,62.68
2022-10-20T13:49:08.273Z,63.29
2022-10-20T13:51:47.368Z,61.71
2022-10-20T13:54:24.703Z,63.58
2022-10-20T13:56:52.332Z,62.45
2022-10-20T14:01:56.229Z,62.20
2022-10-20T14:04:26.357Z,62.76
2022-10-20T14:07:01.597Z,63.24
2022-10-20T14:09:28.666Z,63.73
2022-10-20T14:12:00.221Z,63.46
2022-10-20T14:14:29.458Z,64.41
2022-10-20T14:17:06.499Z,63.57
2022-10-20T14:19:34.039Z,65.30
2022-10-20T14:22:21.357Z,65.95
2022-10-20T14:24:57.372Z,65.59
2022-10-20T14:27:28.816Z,64.55
2022-10-20T14:29:56.617Z,64.85
2022-10-20T14:32:27.404Z,65.73
2022-10-20T14:35:13.905Z,65.01
2022-10-20T14:37:44.787Z,63.81
2022-10-20T14:40:24.374Z,65.89
2022-10-20T14:42:51.721Z,65.71
2022-10-20T14:45:25.093Z,65.33
2022-10-20T14:47:53.491Z,66.17
2022-10-20T14:50:40.843Z,66.12
2022-10-20T14:53:22.688Z,65.83
2022-10-20T14:55:49.451Z,65.90
2022-10-20T14:58:34.555Z,65.71
2022-10-20T15:01:24.435Z,65.84
2022-10-20T15:06:39.406Z,68.70
2022-10-20T15:09:06.342Z,68.09
2022-10-20T15:11:33.152Z,69.28
2022-10-20T15:14:00.451Z,69.39
2022-10-20T15:16:42.493Z,69.70
2022-10-20T15:19:27.350Z,71.26
2022-10-20T15:22:00.577Z,70.97
2022-10-20T15:24:28.605Z,71.41
2022-10-20T15:26:56.729Z,72.76
2022-10-20T15:29:24.171Z,71.51
2022-10-20T15:31:50.810Z,72.30
2022-10-20T15:34:17.555Z,73.42
2022-10-20T15:36:48.899Z,73.47
2022-10-20T15:39:17.715Z,74.06
2022-10-20T15:41:44.355Z,72.77
2022-10-20T15:44:15.809Z,73.11
2022-10-20T15:46:44.755Z,74.04
2022-10-20T15:49:12.273Z,73.70
2022-10-20T15:51:41.205Z,73.83
2022-10-20T15:54:13.631Z,74.66
2022-10-20T15:56:40.526Z,75.02
2022-10-20T15:59:07.218Z,74.94
2022-10-20T16:01:34.005Z,73.21
2022-10-20T16:04:04.890Z,73.95
2022-10-20T16:06:31.530Z,74.91
2022-10-20T16:08:58.242Z,75.27
2022-10-20T16:11:24.976Z,75.83
2022-10-20T16:13:51.596Z,76.39
2022-10-20T16:16:21.199Z,76.58
2022-10-20T16:18:48.001Z,77.92
2022-10-20T16:21:14.652Z,77.71
2022-10-20T16:23:42.477Z,77.99
2022-10-20T16:26:13.245Z,76.93
2022-10-20T16:28:40.424Z,77.73
2022-10-20T16:31:10.049Z,78.57
2022-10-20T16:33:37.007Z,78.29
2022-10-20T16:38:40.191Z,78.26
2022-10-20T16:41:10.585Z,78.93
2022-10-20T16:43:40.633Z,80.47
2022-10-20T16:46:09.318Z,81.04
2022-10-20T16:48:37.785Z,81.18
2022-10-20T16:51:07.051Z,81.94
2022-10-20T16:53:34.146Z,82.49
2022-10-20T16:56:00.884Z,83.20
2022-10-20T16:58:28.038Z,83.87
2022-10-20T17:01:04.067Z,84.53
2022-10-20T17:03:30.904Z,85.17
2022-10-20T17:05:59.834Z,85.31
2022-10-20T17:08:28.094Z,85.80
2022-10-20T17:10:57.007Z,86.17
2022-10-20T17:13:23.782Z,86.35
2022-10-20T17:15:50.906Z,86.67
2022-10-20T17:18:18.432Z,86.54
2022-10-20T17:20:45.177Z,87.47
2022-10-20T17:23:12.010Z,87.67
2022-10-20T17:25:39.563Z,87.13
2022-10-20T17:28:06.288Z,87.46
2022-10-20T17:30:32.967Z,87.76
2022-10-20T17:32:59.794Z,87.39
2022-10-20T17:35:28.713Z,87.78
2022-10-20T17:37:55.332Z,89.18
2022-10-20T17:40:22.481Z,89.16
2022-10-20T17:42:49.238Z,90.17
2022-10-20T17:45:16.030Z,89.96
2022-10-20T17:47:51.027Z,89.88
2022-10-20T17:50:17.683Z,90.36
2022-10-20T17:52:44.364Z,91.01
2022-10-20T17:55:11.036Z,90.64
2022-10-20T17:57:37.757Z,90.94
2022-10-20T18:00:10.927Z,91.31
2022-10-20T18:02:46.971Z,91.15
2022-10-20T18:05:17.037Z,91.97
2022-10-20T18:07:44.177Z,92.28
2022-10-20T18:10:11.974Z,92.16
2022-10-20T18:12:39.373Z,92.41
2022-10-20T18:15:06.854Z,92.90
2022-10-20T18:17:35.881Z,93.29
2022-10-20T18:20:03.357Z,93.96
2022-10-20T18:22:30.076Z,93.86
2022-10-20T18:24:56.770Z,93.42
2022-10-20T18:27:24.433Z,93.41
2022-10-20T18:29:51.091Z,93.75
2022-10-20T18:32:17.872Z,94.01
2022-10-20T18:34:46.266Z,94.44
2022-10-20T18:37:17.729Z,94.05
2022-10-20T18:39:45.754Z,94.14
2022-10-20T18:42:15.334Z,93.74
2022-10-20T18:44:42.881Z,94.15
2022-10-20T18:47:11.844Z,93.47
2022-10-20T18:49:38.476Z,94.00
2022-10-20T18:52:07.560Z,95.51
2022-10-20T18:54:34.375Z,97.03
2022-10-20T18:57:01.104Z,96.84
2022-10-20T18:59:28.110Z,96.58
2022-10-20T19:02:00.356Z,96.82
2022-10-20T19:04:30.551Z,96.59
2022-10-20T19:06:57.224Z,96.89
2022-10-20T19:09:23.874Z,97.49
2022-10-20T19:14:22.760Z,97.05
2022-10-20T19:16:50.247Z,97.24
2022-10-20T19:19:24.845Z,97.13
2022-10-20T19:21:51.502Z,97.53
2022-10-20T19:24:21.394Z,98.14
2022-10-20T19:27:02.320Z,97.83
2022-10-20T19:29:35.250Z,97.72
2022-10-20T19:32:04.652Z,97.75
2022-10-20T19:34:35.633Z,98.18
2022-10-20T19:37:03.683Z,98.60
2022-10-20T19:39:33.490Z,98.38
2022-10-20T19:42:01.678Z,98.40
2022-10-20T19:44:31.919Z,98.34
2022-10-20T19:46:59.256Z,98.25
2022-10-20T19:49:26.852Z,98.87
2022-10-20T19:51:53.869Z,97.66
2022-10-20T19:54:20.809Z,97.63
2022-10-20T19:56:47.593Z,98.30
2022-10-20T19:59:14.557Z,98.39
2022-10-20T20:01:41.213Z,98.58
2022-10-20T20:04:09.179Z,99.86
2022-10-20T20:06:35.847Z,100.00
2022-10-20T20:09:07.891Z,100.00
2022-10-20T20:11:38.517Z,100.00
2022-10-20T20:14:10.370Z,100.00
2022-10-20T20:16:37.698Z,100.00
2022-10-20T20:19:04.816Z,100.00
2022-10-20T20:21:31.773Z,100.00
2022-10-20T20:24:01.772Z,100.00
2022-10-20T20:26:30.865Z,100.00
2022-10-20T20:28:58.080Z,100.00
2022-10-20T20:31:29.024Z,100.00
2022-10-20T20:33:57.653Z,100.00
2022-10-20T20:36:27.121Z,100.00
2022-10-20T20:38:57.875Z,100.00
2022-10-20T20:41:27.326Z,100.00
2022-10-20T20:43:54.535Z,100.00
2022-10-20T20:46:22.956Z,100.00
2022-10-20T20:48:50.565Z,100.00
2022-10-20T20:51:17.576Z,100.00
2022-10-20T20:53:44.302Z,100.00
2022-10-20T20:56:13.904Z,100.00
2022-10-20T20:58:45.292Z,100.00
2022-10-20T21:01:19.008Z,100.00
2022-10-20T21:03:47.755Z,100.00
2022-10-20T21:06:17.209Z,100.00
2022-10-20T21:08:47.641Z,100.00
2022-10-20T21:11:16.942Z,100.00
2022-10-20T21:13:47.541Z,100.00
2022-10-20T21:16:15.192Z,100.00
2022-10-20T21:18:46.028Z,100.00
2022-10-20T21:21:15.577Z,100.00
2022-10-20T21:23:42.861Z,100.00
2022-10-20T21:26:11.780Z,100.00
2022-10-20T21:28:40.703Z,100.00
2022-10-20T21:31:09.462Z,100.00
2022-10-20T21:33:37.027Z,100.00
2022-10-20T21:36:12.514Z,100.00
2022-10-20T21:38:40.187Z,100.00
2022-10-20T21:41:12.829Z,100.00
2022-10-20T21:43:43.388Z,100.00
2022-10-20T21:46:25.536Z,100.00
2022-10-20T21:49:00.914Z,100.00
2022-10-20T21:51:37.642Z,100.00
2022-10-20T21:54:07.822Z,100.00
2022-10-20T21:56:37.234Z,100.00
2022-10-20T21:59:06.022Z,100.00
2022-10-20T22:01:33.095Z,100.00
2022-10-20T22:04:00.003Z,100.00
2022-10-20T22:06:31.200Z,100.00
2022-10-20T22:08:58.910Z,100.00
2022-10-20T22:11:29.644Z,100.00
2022-10-20T22:13:57.294Z,100.00
2022-10-20T22:16:28.154Z,100.00
2022-10-20T22:19:05.880Z,100.00
2022-10-20T22:21:37.206Z,100.00
2022-10-20T22:24:04.685Z,100.00
2022-10-20T22:26:32.262Z,100.00
2022-10-20T22:29:02.336Z,100.00
2022-10-20T22:31:30.200Z,100.00
2022-10-20T22:33:59.344Z,100.00
2022-10-20T22:36:27.340Z,100.00
2022-10-20T22:38:54.155Z,100.00
2022-10-20T22:41:21.431Z,100.00
2022-10-20T22:43:48.095Z,100.00
2022-10-20T22:46:16.024Z,100.00
2022-10-20T22:48:43.174Z,100.00
2022-10-20T22:51:10.910Z,100.00
2022-10-20T22:53:38.655Z,100.00
2022-10-20T22:56:11.969Z,100.00
2022-10-20T22:58:39.657Z,100.00
2022-10-20T23:01:09.228Z,100.00
2022-10-20T23:03:35.989Z,100.00
2022-10-20T23:06:08.632Z,100.00
2022-10-20T23:08:40.454Z,100.00
2022-10-20T23:11:07.283Z,100.00
2022-10-20T23:13:34.013Z,100.00
2022-10-20T23:16:01.298Z,100.00
2022-10-20T23:18:28.595Z,100.00
2022-10-20T23:20:57.402Z,100.00
2022-10-20T23:23:25.023Z,100.00
2022-10-20T23:25:52.045Z,100.00
2022-10-20T23:28:19.246Z,100.00
2022-10-20T23:30:46.142Z,100.00
2022-10-20T23:33:12.874Z,100.00
2022-10-20T23:35:39.693Z,100.00
2022-10-20T23:38:09.214Z,100.00
2022-10-20T23:40:36.396Z,100.00
2022-10-20T23:43:03.127Z,100.00
2022-10-20T23:45:31.797Z,100.00
2022-10-20T23:48:00.877Z,100.00
2022-10-20T23:50:27.522Z,100.00
2022-10-20T23:52:54.270Z,100.00
2022-10-20T23:55:20.909Z,100.00
2022-10-20T23:57:49.716Z,100.00
